Terminal Aerodrome Forecast
Issued by NWS Upton, NY

Home | Current Version | Previous Version | Text Only | Print | Product List | Glossary On
Versions: 1 2 3 4 5 6 7 8 9 10 11 12 13 14 15 16 17 18 19 20 21 22 23 24 25 26 27 28
000
FTUS41 KOKX 200800 AAA
TAFLGA
TAF AMD
KLGA 200832Z 2009/2106 06005KT P6SM OVC025
     FM201000 15007KT P6SM OVC025
     FM201500 16011KT P6SM BKN035
     FM201900 17014G20KT P6SM SCT040
     FM210000 17010KT P6SM BKN040=

USA.gov is the U.S. government's official web portal to all federal, state and local government web resources and services.